Montgomery Creek, CA (96065)

2:30 PM PDT on August 21, 2014 (GMT -0700)
Black Ranch at Vedder | Change Station
CLOSE
Current Station
Personal Weather Station
Location: Burney, CA
Elevation: 3137 ft
Nearby Weather Stations

Elev 3137 ft 40.93 °N, 121.66 °W | Updated 3 seconds ago

Clear
Clear
85.7 °F
Feels Like 83 °F
N
0.0
Wind Variable Wind from WNW
Gusts 9.0 mph

Today
High -- | Low -- °F
--% Chance of Precip.
Yesterday
High -- | Low -- °F
Precip. -- in
6:23 AM 7:57 PM
Waning Crescent, 12% visible
Pressure 29.98 in
Visibility 10.0 miles
Clouds Clear
Heat Index 83 °F
Dew Point 48 °F
Humidity 27%
Rainfall 0.00 in
Snow Depth Not available.
UV 5.8 out of 12
Pollen 7.40 out of 12
Air Quality Not available.
Flu Activity Not available.
METAR KMHS 212056Z AUTO 00000KT 10SM CLR 28/09 A3001 RMK AO2 SLP150 T02780094 58014

More Conditions Fewer Conditions

Pressure 29.98 in
Visibility 10.0 miles
Clouds Clear
Heat Index 83 °F
Dew Point 48 °F
Humidity 27%
Rainfall 0.00 in
Snow Depth Not available.
UV 5.8 out of 12
Pollen 7.40 out of 12
Air Quality Not available.
Flu Activity Not available.
METAR KMHS 212056Z AUTO 00000KT 10SM CLR 28/09 A3001 RMK AO2 SLP150 T02780094 58014

More Conditions Fewer Conditions

10-Day Weather Forecast

Almanac

Astronomy

Aug. 21, 2014 Rise Set
Actual Time 6:23 AM PDT 7:57 PM PDT
Civil Twilight 5:54 AM PDT 8:26 PM PDT
Nautical Twilight 5:19 AM PDT 9:01 PM PDT
Astronomical Twilight 4:42 AM PDT 9:38 PM PDT
Moon 2:58 AM PDT 5:30 PM PDT
Length of Visible Light 14h 31m
Length of Day
13h 33m
Tomorrow will be 2m 30s shorter.
Waning Crescent, 12% of the Moon is Illuminated
Today
Waning Crescent
Aug 25
New
Sep 2
First Quarter
Sep 8
Full
Sep 15
Last Quarter

Today's Extremes

State Highs State Lows

Community

WunderPhotos

Upload Photos

1,746,021 photos uploaded!

WunderBlogs® & News

Nearby

Snow Depth

Station Depth Elevation
Adin Mountain 0 in 6200 ft
Cedar Pass 1 in 7100 ft
CSS Lab 1 in 6900 ft
Leavitt Meadows 1 in 7200 ft

Earthquake Activity

City Distance Mag. Time & Date
No recent earthquake activity has been reported nearby.
Minimum magnitude displayed is 2.5.

Coastal Water Temperatures

Place Temperature
No Stations Reporting

Nearby Weather Stations